createdAt,value
2023-03-01T00:00:01.438Z,7.17
2023-03-01T00:02:28.112Z,6.20
2023-03-01T00:04:54.698Z,6.97
2023-03-01T00:07:21.352Z,6.60
2023-03-01T00:09:47.920Z,6.90
2023-03-01T00:12:14.461Z,6.73
2023-03-01T00:14:41.243Z,6.80
2023-03-01T00:17:08.067Z,7.17
2023-03-01T00:19:34.846Z,7.47
2023-03-01T00:22:01.475Z,6.60
2023-03-01T00:24:28.148Z,7.20
2023-03-01T00:26:59.258Z,6.50
2023-03-01T00:29:26.649Z,7.00
2023-03-01T00:31:53.322Z,6.73
2023-03-01T00:34:19.926Z,7.10
2023-03-01T00:36:46.533Z,6.73
2023-03-01T00:39:15.749Z,6.83
2023-03-01T00:41:43.404Z,6.50
2023-03-01T00:44:10.641Z,7.70
2023-03-01T00:46:37.508Z,7.90
2023-03-01T00:49:05.528Z,9.10
2023-03-01T00:51:33.342Z,8.50
2023-03-01T00:54:02.172Z,7.20
2023-03-01T00:56:30.801Z,8.20
2023-03-01T00:58:57.686Z,8.37
2023-03-01T01:01:31.835Z,7.97
2023-03-01T01:04:04.618Z,8.33
2023-03-01T01:06:34.544Z,7.30
2023-03-01T01:09:02.068Z,7.60
2023-03-01T01:11:30.606Z,7.00
2023-03-01T01:13:58.138Z,7.10
2023-03-01T01:16:26.621Z,7.77
2023-03-01T01:18:53.667Z,7.70
2023-03-01T01:21:22.642Z,7.30
2023-03-01T01:23:50.122Z,7.73
2023-03-01T01:26:19.885Z,7.23
2023-03-01T01:28:48.582Z,6.97
2023-03-01T01:31:15.722Z,7.27
2023-03-01T01:33:42.517Z,6.93
2023-03-01T01:36:09.613Z,7.10
2023-03-01T01:38:38.357Z,7.97
2023-03-01T01:41:06.366Z,7.07
2023-03-01T01:43:37.530Z,7.13
2023-03-01T01:46:31.590Z,7.43
2023-03-01T01:49:06.328Z,7.50
2023-03-01T01:51:39.232Z,7.30
2023-03-01T01:54:27.451Z,7.70
2023-03-01T01:56:59.801Z,7.63
2023-03-01T01:59:29.360Z,6.90
2023-03-01T02:01:56.103Z,7.30
2023-03-01T02:04:23.638Z,6.40
2023-03-01T02:07:01.024Z,7.20
2023-03-01T02:09:27.878Z,6.87
2023-03-01T02:11:55.220Z,7.27
2023-03-01T02:14:21.884Z,6.53
2023-03-01T02:16:49.016Z,6.93
2023-03-01T02:19:31.809Z,6.53
2023-03-01T02:22:27.905Z,6.80
2023-03-01T02:25:13.122Z,7.17
2023-03-01T02:27:49.917Z,7.47
2023-03-01T02:30:16.928Z,6.57
2023-03-01T02:32:46.705Z,6.90
2023-03-01T02:35:16.829Z,7.37
2023-03-01T02:37:44.152Z,6.90
2023-03-01T02:40:18.346Z,7.40
2023-03-01T02:42:51.896Z,6.77
2023-03-01T02:45:18.881Z,7.07
2023-03-01T02:47:45.675Z,7.53
2023-03-01T02:50:26.143Z,6.73
2023-03-01T02:53:04.758Z,7.47
2023-03-01T02:55:31.346Z,9.47
2023-03-01T02:57:58.343Z,8.93
2023-03-01T03:00:34.111Z,7.97
2023-03-01T03:03:00.686Z,8.13
2023-03-01T03:05:31.583Z,8.20
2023-03-01T03:07:59.523Z,7.80
2023-03-01T03:10:31.947Z,6.97
2023-03-01T03:13:01.914Z,7.50
2023-03-01T03:15:29.891Z,8.00
2023-03-01T03:17:58.304Z,7.50
2023-03-01T03:20:28.905Z,8.43
2023-03-01T03:22:57.198Z,7.40
2023-03-01T03:25:28.208Z,7.97
2023-03-01T03:27:57.577Z,7.27
2023-03-01T03:30:27.363Z,7.80
2023-03-01T03:32:54.061Z,7.00
2023-03-01T03:35:45.268Z,7.23
2023-03-01T03:38:16.619Z,8.23
2023-03-01T03:40:49.123Z,7.37
2023-03-01T03:43:21.256Z,7.70
2023-03-01T03:45:49.579Z,8.30
2023-03-01T03:48:17.222Z,7.73
2023-03-01T03:50:49.598Z,7.60
2023-03-01T03:53:16.473Z,7.27
2023-03-01T03:55:43.102Z,7.30
2023-03-01T03:58:11.082Z,7.70
2023-03-01T04:00:43.185Z,7.00
2023-03-01T04:03:10.773Z,8.00
2023-03-01T04:05:38.656Z,8.03
2023-03-01T04:08:08.035Z,7.87
2023-03-01T04:10:39.783Z,7.13
2023-03-01T04:13:08.087Z,7.83
2023-03-01T04:15:35.195Z,8.63
2023-03-01T04:18:02.362Z,8.27
2023-03-01T04:20:32.094Z,7.40
2023-03-01T04:23:21.225Z,7.70
2023-03-01T04:25:54.968Z,7.60
2023-03-01T04:28:29.892Z,8.57
2023-03-01T04:30:58.482Z,8.20
2023-03-01T04:33:26.264Z,8.50
2023-03-01T04:35:53.367Z,8.07
2023-03-01T04:38:22.050Z,7.70
2023-03-01T04:40:48.689Z,7.90
2023-03-01T04:43:15.662Z,7.67
2023-03-01T04:45:42.885Z,7.70
2023-03-01T04:48:09.650Z,7.33
2023-03-01T04:50:36.230Z,7.93
2023-03-01T04:53:03.041Z,6.60
2023-03-01T04:55:29.892Z,7.60
2023-03-01T04:57:56.777Z,7.50
2023-03-01T05:00:24.244Z,8.27
2023-03-01T05:03:01.728Z,7.93
2023-03-01T05:05:32.361Z,7.60
2023-03-01T05:08:01.522Z,8.17
2023-03-01T05:10:30.943Z,8.00
2023-03-01T05:12:58.638Z,8.17
2023-03-01T05:15:27.548Z,8.00
2023-03-01T05:17:55.348Z,8.73
2023-03-01T05:20:23.808Z,8.20
2023-03-01T05:22:56.439Z,8.97
2023-03-01T05:25:23.152Z,9.30
2023-03-01T05:27:49.730Z,8.70
2023-03-01T05:30:16.945Z,8.60
2023-03-01T05:32:48.876Z,9.10
2023-03-01T05:35:18.118Z,8.43
2023-03-01T05:37:47.550Z,8.30
2023-03-01T05:40:17.364Z,7.63
2023-03-01T05:42:49.431Z,8.37
2023-03-01T05:45:17.556Z,9.23
2023-03-01T05:47:45.972Z,9.87
2023-03-01T05:50:22.206Z,10.43
2023-03-01T05:52:51.491Z,9.20
2023-03-01T05:55:20.070Z,9.90
2023-03-01T05:57:47.530Z,10.43
2023-03-01T06:00:16.176Z,9.00
2023-03-01T06:02:43.072Z,10.03
2023-03-01T06:05:11.710Z,10.03
2023-03-01T06:07:38.600Z,10.20
2023-03-01T06:10:06.881Z,8.53
2023-03-01T06:12:35.324Z,8.60
2023-03-01T06:15:02.497Z,9.53
2023-03-01T06:17:38.088Z,9.47
2023-03-01T06:20:06.854Z,8.87
2023-03-01T06:22:33.461Z,9.00
2023-03-01T06:25:00.104Z,10.40
2023-03-01T06:27:26.758Z,9.20
2023-03-01T06:29:53.450Z,9.10
2023-03-01T06:32:20.102Z,9.00
2023-03-01T06:34:46.730Z,9.50
2023-03-01T06:37:13.407Z,9.50
2023-03-01T06:39:40.014Z,10.53
2023-03-01T06:42:08.093Z,9.57
2023-03-01T06:44:34.803Z,10.07
2023-03-01T06:47:01.393Z,11.00
2023-03-01T06:49:28.032Z,10.23
2023-03-01T06:51:54.688Z,10.37
2023-03-01T06:54:23.275Z,10.47
2023-03-01T06:56:51.124Z,10.33
2023-03-01T06:59:18.195Z,10.90
2023-03-01T07:01:44.908Z,10.07
2023-03-01T07:04:12.294Z,10.67
2023-03-01T07:06:38.917Z,10.63
2023-03-01T07:09:05.508Z,10.33
2023-03-01T07:11:32.203Z,9.10
2023-03-01T07:13:59.348Z,12.33
2023-03-01T07:16:25.971Z,15.60
2023-03-01T07:18:52.678Z,10.77
2023-03-01T07:21:19.283Z,10.23
2023-03-01T07:23:48.828Z,10.37
2023-03-01T07:26:15.382Z,21.90
2023-03-01T07:28:41.928Z,14.73
2023-03-01T07:31:08.553Z,8.80
2023-03-01T07:33:35.249Z,9.10
2023-03-01T07:36:04.554Z,7.70
2023-03-01T07:38:31.853Z,8.40
2023-03-01T07:41:04.023Z,7.40
2023-03-01T07:43:31.374Z,8.53
2023-03-01T07:46:02.427Z,8.43
2023-03-01T07:48:30.305Z,8.87
2023-03-01T07:51:01.381Z,8.60
2023-03-01T07:53:28.250Z,8.83
2023-03-01T07:56:11.319Z,7.70
2023-03-01T07:58:47.391Z,7.40
2023-03-01T08:01:19.482Z,8.27
2023-03-01T08:03:46.564Z,7.43
2023-03-01T08:06:15.355Z,7.50
2023-03-01T08:08:42.378Z,7.73
2023-03-01T08:11:11.444Z,8.10
2023-03-01T08:13:38.031Z,8.30
2023-03-01T08:16:06.980Z,7.63
2023-03-01T08:18:33.589Z,7.87
2023-03-01T08:21:08.467Z,8.10
2023-03-01T08:23:35.370Z,7.63
2023-03-01T08:26:12.871Z,6.93
2023-03-01T08:28:40.291Z,7.90
2023-03-01T08:31:17.010Z,8.80
2023-03-01T08:33:44.195Z,7.47
2023-03-01T08:36:10.937Z,7.60
2023-03-01T08:38:37.471Z,7.70
2023-03-01T08:41:04.933Z,7.63
2023-03-01T08:43:32.160Z,6.83
2023-03-01T08:45:58.849Z,6.90
2023-03-01T08:48:28.070Z,8.60
2023-03-01T08:50:54.715Z,7.70
2023-03-01T08:53:21.275Z,7.20
2023-03-01T08:55:49.928Z,7.10
2023-03-01T08:58:17.247Z,7.20
2023-03-01T09:00:43.838Z,7.50
2023-03-01T09:03:10.414Z,7.03
2023-03-01T09:05:37.764Z,7.50
2023-03-01T09:08:04.807Z,7.00
2023-03-01T09:10:31.399Z,6.93
2023-03-01T09:12:58.006Z,6.90
2023-03-01T09:15:24.539Z,7.50
2023-03-01T09:17:51.173Z,7.27
2023-03-01T09:20:17.730Z,6.70
2023-03-01T09:22:44.791Z,7.00
2023-03-01T09:25:11.387Z,6.33
2023-03-01T09:27:37.963Z,6.13
2023-03-01T09:30:05.617Z,6.03
2023-03-01T09:32:32.391Z,7.03
2023-03-01T09:35:01.967Z,7.00
2023-03-01T09:37:28.487Z,5.60
2023-03-01T09:39:55.028Z,6.70
2023-03-01T09:42:22.248Z,6.00
2023-03-01T09:45:22.772Z,6.10
2023-03-01T09:47:50.055Z,6.33
2023-03-01T09:50:21.858Z,5.90
2023-03-01T09:53:15.713Z,5.93
2023-03-01T09:55:47.191Z,5.60
2023-03-01T09:58:37.856Z,6.00
2023-03-01T10:01:14.985Z,5.80
2023-03-01T10:03:49.276Z,6.23
2023-03-01T10:06:33.901Z,5.50
2023-03-01T10:09:17.918Z,5.23
2023-03-01T10:11:49.515Z,5.10
2023-03-01T10:14:36.522Z,5.07
2023-03-01T10:17:28.474Z,5.43
2023-03-01T10:19:59.215Z,5.47
2023-03-01T10:22:29.343Z,5.67
2023-03-01T10:24:59.668Z,5.73
2023-03-01T10:27:35.116Z,5.10
2023-03-01T10:30:12.204Z,5.30
2023-03-01T10:32:39.167Z,5.47
2023-03-01T10:35:28.189Z,5.53
2023-03-01T10:38:15.146Z,6.33
2023-03-01T10:40:55.870Z,5.90
2023-03-01T10:43:23.350Z,5.10
2023-03-01T10:45:50.263Z,6.23
2023-03-01T10:48:27.017Z,6.23
2023-03-01T10:50:59.809Z,5.73
2023-03-01T10:53:29.876Z,5.50
2023-03-01T10:56:08.649Z,6.00
2023-03-01T10:58:37.878Z,6.20
2023-03-01T11:01:16.320Z,6.50
2023-03-01T11:03:43.005Z,6.13
2023-03-01T11:06:12.506Z,5.93
2023-03-01T11:08:47.383Z,5.97
2023-03-01T11:11:22.969Z,5.63
2023-03-01T11:14:01.448Z,6.07
2023-03-01T11:16:35.384Z,6.33
2023-03-01T11:19:16.359Z,5.60
2023-03-01T11:21:59.148Z,6.13
2023-03-01T11:24:34.815Z,5.37
2023-03-01T11:27:05.099Z,6.37
2023-03-01T11:29:48.744Z,6.10
2023-03-01T11:32:16.604Z,5.73
2023-03-01T11:34:57.294Z,6.30
2023-03-01T11:37:35.875Z,6.23
2023-03-01T11:40:17.710Z,5.97
2023-03-01T11:43:07.442Z,6.43
2023-03-01T11:46:03.313Z,6.30
2023-03-01T11:48:49.902Z,6.20
2023-03-01T11:51:33.385Z,5.87
2023-03-01T11:54:28.133Z,5.93
2023-03-01T11:57:13.085Z,6.03
2023-03-01T12:00:08.981Z,6.90
2023-03-01T12:02:41.786Z,5.37
2023-03-01T12:05:30.232Z,6.50
2023-03-01T12:08:15.467Z,5.93
2023-03-01T12:10:57.769Z,6.50
2023-03-01T12:13:55.026Z,6.30
2023-03-01T12:16:38.421Z,6.00
2023-03-01T12:19:31.210Z,5.90
2023-03-01T12:22:23.700Z,6.07
2023-03-01T12:25:27.551Z,6.70
2023-03-01T12:28:13.785Z,6.43
2023-03-01T12:31:09.218Z,6.47
2023-03-01T12:34:08.101Z,6.70
2023-03-01T12:36:43.662Z,7.00
2023-03-01T12:39:24.929Z,6.17
2023-03-01T12:42:06.214Z,6.97
2023-03-01T12:44:54.399Z,6.30
2023-03-01T12:47:27.518Z,5.60
2023-03-01T12:50:12.628Z,5.77
2023-03-01T12:52:52.122Z,6.00
2023-03-01T12:55:34.247Z,5.97
2023-03-01T12:58:10.551Z,6.00
2023-03-01T13:01:02.645Z,6.43
2023-03-01T13:04:02.018Z,6.77
2023-03-01T13:06:53.163Z,6.60
2023-03-01T13:09:38.436Z,5.67
2023-03-01T13:12:25.092Z,7.00
2023-03-01T13:14:55.569Z,6.80
2023-03-01T13:17:34.666Z,6.60
2023-03-01T13:20:01.521Z,8.07
2023-03-01T13:22:32.487Z,7.60
2023-03-01T13:25:14.112Z,7.10
2023-03-01T13:27:40.852Z,7.10
2023-03-01T13:30:39.308Z,7.33
2023-03-01T13:33:24.155Z,6.70
2023-03-01T13:35:50.769Z,7.27
2023-03-01T13:38:54.635Z,7.53
2023-03-01T13:41:39.443Z,7.23
2023-03-01T13:44:24.723Z,7.10
2023-03-01T13:46:58.709Z,6.93
2023-03-01T13:49:45.613Z,7.10
2023-03-01T13:52:34.497Z,8.30
2023-03-01T13:55:02.751Z,7.70
2023-03-01T13:57:35.339Z,8.73
2023-03-01T14:00:02.025Z,7.20
2023-03-01T14:02:28.621Z,7.57
2023-03-01T14:05:02.080Z,6.23
2023-03-01T14:07:32.364Z,7.00
2023-03-01T14:10:07.283Z,6.80
2023-03-01T14:12:36.553Z,5.90
2023-03-01T14:15:09.291Z,6.63
2023-03-01T14:17:38.947Z,7.50
2023-03-01T14:20:18.474Z,5.80
2023-03-01T14:22:46.077Z,6.87
2023-03-01T14:25:36.681Z,6.50
2023-03-01T14:28:18.116Z,6.40
2023-03-01T14:30:52.670Z,6.30
2023-03-01T14:33:37.219Z,6.40
2023-03-01T14:36:06.571Z,6.93
2023-03-01T14:38:43.365Z,7.13
2023-03-01T14:41:23.355Z,6.63
2023-03-01T14:44:05.442Z,7.40
2023-03-01T14:46:35.946Z,6.30
2023-03-01T14:49:07.089Z,7.53
2023-03-01T14:51:39.068Z,6.27
2023-03-01T14:54:23.338Z,6.53
2023-03-01T14:56:51.993Z,7.07
2023-03-01T14:59:23.228Z,6.40
2023-03-01T15:01:50.860Z,6.30
2023-03-01T15:04:18.727Z,7.10
2023-03-01T15:06:45.442Z,6.70
2023-03-01T15:09:17.235Z,7.10
2023-03-01T15:11:44.722Z,6.90
2023-03-01T15:14:29.072Z,6.20
2023-03-01T15:16:56.789Z,6.80
2023-03-01T15:19:28.600Z,7.60
2023-03-01T15:21:56.132Z,6.63
2023-03-01T15:24:26.422Z,6.67
2023-03-01T15:26:58.218Z,6.23
2023-03-01T15:29:30.647Z,6.23
2023-03-01T15:32:04.920Z,7.37
2023-03-01T15:34:33.864Z,9.97
2023-03-01T15:37:03.101Z,8.63
2023-03-01T15:39:38.637Z,6.40
2023-03-01T15:42:31.093Z,7.20
2023-03-01T15:45:21.455Z,7.77
2023-03-01T15:47:51.020Z,7.30
2023-03-01T15:50:25.541Z,6.00
2023-03-01T15:52:52.864Z,5.83
2023-03-01T15:55:22.562Z,5.00
2023-03-01T15:57:50.876Z,5.40
2023-03-01T16:00:18.517Z,6.20
2023-03-01T16:02:45.704Z,7.37
2023-03-01T16:05:20.105Z,6.20
2023-03-01T16:07:46.714Z,6.53
2023-03-01T16:10:14.182Z,6.27
2023-03-01T16:12:41.003Z,7.60
2023-03-01T16:15:17.738Z,8.33
2023-03-01T16:17:44.423Z,9.67
2023-03-01T16:20:19.655Z,8.10
2023-03-01T16:22:50.127Z,10.47
2023-03-01T16:25:18.831Z,6.43
2023-03-01T16:27:47.729Z,5.97
2023-03-01T16:30:16.696Z,5.13
2023-03-01T16:32:44.890Z,5.00
2023-03-01T16:35:14.621Z,5.67
2023-03-01T16:37:42.071Z,5.20
2023-03-01T16:40:19.004Z,6.17
2023-03-01T16:42:45.603Z,5.77
2023-03-01T16:45:22.709Z,5.20
2023-03-01T16:47:50.983Z,6.50
2023-03-01T16:50:17.608Z,5.63
2023-03-01T16:52:44.268Z,5.53
2023-03-01T16:55:11.329Z,5.90
2023-03-01T16:57:38.781Z,6.50
2023-03-01T17:00:08.556Z,6.20
2023-03-01T17:02:36.570Z,6.17
2023-03-01T17:05:04.458Z,6.37
2023-03-01T17:07:35.123Z,7.20
2023-03-01T17:10:02.957Z,6.63
2023-03-01T17:12:29.737Z,7.30
2023-03-01T17:14:56.317Z,11.20
2023-03-01T17:17:22.981Z,7.83
2023-03-01T17:19:49.712Z,7.27
2023-03-01T17:22:17.485Z,6.37
2023-03-01T17:24:44.639Z,7.83
2023-03-01T17:27:13.116Z,7.53
2023-03-01T17:29:40.784Z,9.30
2023-03-01T17:32:08.482Z,9.17
2023-03-01T17:34:35.438Z,9.63
2023-03-01T17:37:01.988Z,8.97
2023-03-01T17:39:35.929Z,7.10
2023-03-01T17:42:04.940Z,7.70
2023-03-01T17:44:32.806Z,7.27
2023-03-01T17:46:59.567Z,6.00
2023-03-01T17:49:26.404Z,6.50
2023-03-01T17:51:53.145Z,7.70
2023-03-01T17:54:19.810Z,7.10
2023-03-01T17:56:46.455Z,8.30
2023-03-01T17:59:13.055Z,6.30
2023-03-01T18:01:42.615Z,6.03
2023-03-01T18:04:09.534Z,6.67
2023-03-01T18:06:36.970Z,6.00
2023-03-01T18:09:04.207Z,6.00
2023-03-01T18:11:33.017Z,6.20
2023-03-01T18:13:59.810Z,6.40
2023-03-01T18:16:26.534Z,6.03
2023-03-01T18:18:55.300Z,5.23
2023-03-01T18:21:22.826Z,6.00
2023-03-01T18:23:49.731Z,6.90
2023-03-01T18:26:17.575Z,5.57
2023-03-01T18:28:47.692Z,6.13
2023-03-01T18:31:18.361Z,6.73
2023-03-01T18:33:46.091Z,6.40
2023-03-01T18:36:27.432Z,5.97
2023-03-01T18:38:56.064Z,6.00
2023-03-01T18:41:27.325Z,5.63
2023-03-01T18:43:54.485Z,6.87
2023-03-01T18:46:21.859Z,6.30
2023-03-01T18:48:48.831Z,6.13
2023-03-01T18:51:18.464Z,5.80
2023-03-01T18:53:45.662Z,6.60
2023-03-01T18:56:12.789Z,6.13
2023-03-01T18:58:39.883Z,6.40
2023-03-01T19:01:12.275Z,6.43
2023-03-01T19:03:38.841Z,7.10
2023-03-01T19:06:05.550Z,7.20
2023-03-01T19:08:32.475Z,7.17
2023-03-01T19:11:02.387Z,6.50
2023-03-01T19:13:29.061Z,5.33
2023-03-01T19:16:11.914Z,5.37
2023-03-01T19:18:41.051Z,5.50
2023-03-01T19:21:09.355Z,5.60
2023-03-01T19:23:36.681Z,5.10
2023-03-01T19:26:06.713Z,5.27
2023-03-01T19:28:34.446Z,5.50
2023-03-01T19:31:07.480Z,5.37
2023-03-01T19:33:35.386Z,6.00
2023-03-01T19:36:03.551Z,5.20
2023-03-01T19:38:30.793Z,4.70
2023-03-01T19:40:57.810Z,5.40
2023-03-01T19:43:25.147Z,5.17
2023-03-01T19:45:55.472Z,5.40
2023-03-01T19:48:22.925Z,6.57
2023-03-01T19:50:51.220Z,6.40
2023-03-01T19:53:17.881Z,6.23
2023-03-01T19:55:44.596Z,5.30
2023-03-01T19:58:12.083Z,6.13
2023-03-01T20:00:40.045Z,6.00
2023-03-01T20:03:07.118Z,5.10
2023-03-01T20:05:37.708Z,4.87
2023-03-01T20:08:05.312Z,4.80
2023-03-01T20:10:33.847Z,5.53
2023-03-01T20:13:02.560Z,5.97
2023-03-01T20:15:29.517Z,5.97
2023-03-01T20:17:56.319Z,5.00
2023-03-01T20:20:22.965Z,5.27
2023-03-01T20:22:49.562Z,4.50
2023-03-01T20:25:16.303Z,5.53
2023-03-01T20:27:47.262Z,5.00
2023-03-01T20:30:15.066Z,4.80
2023-03-01T20:32:41.738Z,4.90
2023-03-01T20:35:08.751Z,5.03
2023-03-01T20:37:36.606Z,5.40
2023-03-01T20:40:04.148Z,5.30
2023-03-01T20:42:30.748Z,5.53
2023-03-01T20:44:57.394Z,5.27
2023-03-01T20:47:23.977Z,4.87
2023-03-01T20:49:51.922Z,4.87
2023-03-01T20:52:18.712Z,5.20
2023-03-01T20:54:45.340Z,5.20
2023-03-01T20:57:12.013Z,4.93
2023-03-01T20:59:38.634Z,4.90
2023-03-01T21:02:05.246Z,4.37
2023-03-01T21:04:31.874Z,4.70
2023-03-01T21:06:58.479Z,4.90
2023-03-01T21:09:25.052Z,5.00
2023-03-01T21:11:51.585Z,4.53
2023-03-01T21:14:18.487Z,4.90
2023-03-01T21:16:48.079Z,4.50
2023-03-01T21:19:14.994Z,4.27
2023-03-01T21:21:41.566Z,5.47
2023-03-01T21:24:10.373Z,4.87
2023-03-01T21:26:37.140Z,4.80
2023-03-01T21:29:03.941Z,4.33
2023-03-01T21:31:33.796Z,3.40
2023-03-01T21:34:04.216Z,4.37
2023-03-01T21:36:31.783Z,4.87
2023-03-01T21:39:00.813Z,4.93
2023-03-01T21:41:33.117Z,4.63
2023-03-01T21:44:02.878Z,3.80
2023-03-01T21:46:32.245Z,4.70
2023-03-01T21:48:59.642Z,4.70
2023-03-01T21:51:28.055Z,4.70
2023-03-01T21:53:55.545Z,4.30
2023-03-01T21:56:29.687Z,4.80
2023-03-01T21:58:57.432Z,4.60
2023-03-01T22:01:29.049Z,4.60
2023-03-01T22:03:57.840Z,5.23
2023-03-01T22:06:38.106Z,5.07
2023-03-01T22:09:10.284Z,5.30
2023-03-01T22:11:40.206Z,5.43
2023-03-01T22:14:07.682Z,4.80
2023-03-01T22:16:36.309Z,6.20
2023-03-01T22:19:04.914Z,4.93
2023-03-01T22:21:31.476Z,5.10
2023-03-01T22:23:58.506Z,4.53
2023-03-01T22:26:31.767Z,5.50
2023-03-01T22:29:01.425Z,5.57
2023-03-01T22:31:28.747Z,4.97
2023-03-01T22:33:56.562Z,5.80
2023-03-01T22:36:23.774Z,5.17
2023-03-01T22:38:52.207Z,5.40
2023-03-01T22:41:18.776Z,5.97
2023-03-01T22:43:45.312Z,5.33
2023-03-01T22:46:14.376Z,5.13
2023-03-01T22:48:41.502Z,5.50
2023-03-01T22:51:13.371Z,6.33
2023-03-01T22:53:39.931Z,5.20
2023-03-01T22:56:24.374Z,5.30
2023-03-01T22:58:51.020Z,4.90
2023-03-01T23:01:22.447Z,6.30
2023-03-01T23:03:49.606Z,4.93
2023-03-01T23:06:18.306Z,5.60
2023-03-01T23:08:49.910Z,5.90
2023-03-01T23:11:17.990Z,5.30
2023-03-01T23:13:44.872Z,5.23
2023-03-01T23:16:12.265Z,5.03
2023-03-01T23:18:39.772Z,5.53
2023-03-01T23:21:14.976Z,6.20
2023-03-01T23:23:42.350Z,6.10
2023-03-01T23:26:09.306Z,5.23
2023-03-01T23:28:40.707Z,5.77
2023-03-01T23:31:11.157Z,5.60
2023-03-01T23:33:37.838Z,5.30
2023-03-01T23:36:18.423Z,5.67
2023-03-01T23:38:46.876Z,5.30
2023-03-01T23:41:16.180Z,5.20
2023-03-01T23:43:47.761Z,5.20
2023-03-01T23:46:16.325Z,6.03
2023-03-01T23:48:44.163Z,4.93
2023-03-01T23:51:11.626Z,5.93
2023-03-01T23:53:41.257Z,5.37
2023-03-01T23:56:09.835Z,5.10
2023-03-01T23:58:36.411Z,5.60
